Time;durP1;ratioP1;P1;durP2;ratioP2;P2;SDS_P1;SDS_P2;PMS_P1;PMS_P2;Temp;Humidity;BMP_temperature;BMP_pressure;BME280_temperature;BME280_humidity;BME280_pressure;Samples;Min_cycle;Max_cycle;Signal;HPM_P1;HPM_P2
2021/06/15 00:00:11;;;;;;;24.20;17.48;;;20.20;99.90;;;;;;5012989;28;20207;-83
2021/06/15 00:02:36;;;;;;;27.25;17.83;;;20.20;99.90;;;;;;5026953;28;20207;-82
2021/06/15 00:05:03;;;;;;;25.88;17.60;;;20.20;99.90;;;;;;5031129;28;20683;-81
2021/06/15 00:07:28;;;;;;;25.13;18.13;;;20.10;99.90;;;;;;5008585;28;20177;-81
2021/06/15 00:09:54;;;;;;;29.05;18.10;;;20.10;99.90;;;;;;4996663;28;20625;-81
2021/06/15 00:12:20;;;;;;;24.83;16.65;;;20.00;99.90;;;;;;5016672;28;20184;-81
2021/06/15 00:14:45;;;;;;;22.60;16.83;;;20.00;99.90;;;;;;4996482;28;20234;-81
2021/06/15 00:17:11;;;;;;;33.30;17.83;;;20.00;99.90;;;;;;4980418;28;20311;-82
2021/06/15 00:19:38;;;;;;;25.17;17.00;;;20.00;99.90;;;;;;4980533;28;20234;-81
2021/06/15 00:22:04;;;;;;;31.33;19.52;;;20.10;99.90;;;;;;5020403;28;20275;-81
2021/06/15 00:24:29;;;;;;;27.83;19.40;;;20.00;99.90;;;;;;5031825;28;20294;-81
2021/06/15 00:26:55;;;;;;;32.38;19.90;;;20.00;99.90;;;;;;5016093;28;20180;-80
2021/06/15 00:29:21;;;;;;;32.35;19.73;;;20.00;99.90;;;;;;5043268;28;20262;-82
2021/06/15 00:31:47;;;;;;;24.50;18.17;;;20.10;99.90;;;;;;5037228;28;20179;-83
2021/06/15 00:34:13;;;;;;;26.08;19.83;;;20.10;99.90;;;;;;5034633;28;20172;-82
2021/06/15 00:36:38;;;;;;;27.40;19.02;;;20.00;99.90;;;;;;5033432;28;20710;-82
2021/06/15 00:39:04;;;;;;;31.23;20.48;;;19.80;99.90;;;;;;5053896;28;20168;-82
2021/06/15 00:41:30;;;;;;;29.52;20.58;;;19.70;99.90;;;;;;5050930;28;20163;-81
2021/06/15 00:43:56;;;;;;;31.08;20.50;;;19.60;99.90;;;;;;5034566;28;20568;-81
2021/06/15 00:46:21;;;;;;;37.55;23.13;;;19.50;99.90;;;;;;5033390;28;20171;-81
2021/06/15 00:48:47;;;;;;;23.52;18.58;;;19.60;99.90;;;;;;5034610;28;20172;-80
2021/06/15 00:51:14;;;;;;;34.67;22.27;;;19.60;99.90;;;;;;5043537;28;20171;-82
2021/06/15 00:53:40;;;;;;;34.58;23.27;;;19.60;99.90;;;;;;5039859;28;20171;-81
2021/06/15 00:56:06;;;;;;;31.00;21.83;;;19.60;99.90;;;;;;5047046;28;20167;-82
2021/06/15 00:58:32;;;;;;;43.47;22.15;;;19.60;99.90;;;;;;5054185;28;20213;-81
2021/06/15 01:00:59;;;;;;;30.05;20.83;;;19.50;99.90;;;;;;5043092;28;20179;-81
2021/06/15 01:03:26;;;;;;;24.60;18.88;;;19.50;99.90;;;;;;5049689;28;20174;-82
2021/06/15 01:05:53;;;;;;;42.97;20.58;;;19.50;99.90;;;;;;5052531;28;20167;-81
2021/06/15 01:08:36;;;;;;;32.58;19.65;;;19.40;99.90;;;;;;5042477;28;20183;-81
2021/06/15 01:11:28;;;;;;;34.20;18.98;;;19.20;99.90;;;;;;5058335;28;20174;-82
2021/06/15 01:14:18;;;;;;;26.30;17.33;;;19.20;99.90;;;;;;5014460;28;20157;-81
2021/06/15 01:16:56;;;;;;;28.08;20.27;;;19.20;99.90;;;;;;5033852;28;20497;-81
2021/06/15 01:19:52;;;;;;;24.50;18.63;;;19.20;99.90;;;;;;5040239;28;20167;-81
2021/06/15 01:22:37;;;;;;;22.35;17.13;;;19.30;99.90;;;;;;5027667;28;20178;-81
2021/06/15 01:25:26;;;;;;;28.63;17.42;;;19.20;99.90;;;;;;5033795;28;20167;-81
2021/06/15 01:27:57;;;;;;;31.10;17.58;;;19.20;99.90;;;;;;5056181;28;20224;-81
2021/06/15 01:30:29;;;;;;;21.25;16.25;;;19.30;99.90;;;;;;5034086;28;20241;-81
2021/06/15 01:33:03;;;;;;;28.60;18.13;;;19.20;99.90;;;;;;5046936;28;20163;-81
2021/06/15 01:35:32;;;;;;;22.20;18.02;;;19.20;99.90;;;;;;5045840;28;20506;-81
2021/06/15 01:38:09;;;;;;;35.92;22.65;;;19.20;99.90;;;;;;5047594;28;20195;-81
2021/06/15 01:40:54;;;;;;;47.90;26.15;;;19.20;99.90;;;;;;5038198;28;20174;-81
2021/06/15 01:43:33;;;;;;;47.72;28.20;;;19.20;99.90;;;;;;5032520;28;20271;-81
2021/06/15 01:46:02;;;;;;;45.35;28.05;;;19.30;99.90;;;;;;5032286;28;20160;-81
2021/06/15 01:48:34;;;;;;;45.92;28.80;;;19.30;99.90;;;;;;5032417;28;20175;-82
2021/06/15 01:51:02;;;;;;;43.15;27.48;;;19.30;99.90;;;;;;5033611;28;20175;-82
2021/06/15 01:53:30;;;;;;;48.63;28.98;;;19.30;99.90;;;;;;5032258;28;20160;-81
2021/06/15 01:56:01;;;;;;;42.25;27.23;;;19.30;99.90;;;;;;5044074;28;20215;-81
2021/06/15 01:58:29;;;;;;;48.22;28.88;;;19.40;99.90;;;;;;5053520;28;20198;-82
2021/06/15 02:00:56;;;;;;;38.00;27.27;;;19.40;99.90;;;;;;5053292;28;20178;-81
2021/06/15 02:03:23;;;;;;;45.42;30.10;;;19.30;99.90;;;;;;5068495;28;20529;-81
2021/06/15 02:06:00;;;;;;;40.33;28.63;;;19.30;99.90;;;;;;5043755;28;20211;-82
2021/06/15 02:08:34;;;;;;;49.97;31.33;;;19.20;99.90;;;;;;5065172;28;20255;-81
2021/06/15 02:11:00;;;;;;;42.10;30.95;;;19.20;99.90;;;;;;5051787;28;20164;-81
2021/06/15 02:13:29;;;;;;;53.47;33.50;;;19.20;99.90;;;;;;5052074;28;20263;-81
2021/06/15 02:15:57;;;;;;;56.42;34.25;;;19.10;99.90;;;;;;5053282;28;20170;-81
2021/06/15 02:18:26;;;;;;;57.53;33.63;;;19.10;99.90;;;;;;5057453;28;20193;-81
2021/06/15 02:20:52;;;;;;;52.75;34.22;;;19.10;99.90;;;;;;5056057;28;20160;-81
2021/06/15 02:23:21;;;;;;;58.88;34.00;;;19.10;99.90;;;;;;5055771;28;20174;-81
2021/06/15 02:25:51;;;;;;;51.25;33.80;;;19.00;99.90;;;;;;5048108;28;20225;-81
2021/06/15 02:28:19;;;;;;;58.50;34.08;;;19.00;99.90;;;;;;4995530;28;20212;-82
2021/06/15 02:30:44;;;;;;;56.90;35.60;;;18.80;99.90;;;;;;5002763;28;20196;-81
2021/06/15 02:33:13;;;;;;;51.40;34.13;;;18.80;99.90;;;;;;5014740;28;20185;-81
2021/06/15 02:35:47;;;;;;;48.40;32.15;;;18.80;99.90;;;;;;5005490;28;20684;-83
2021/06/15 02:38:24;;;;;;;51.92;34.05;;;18.90;99.90;;;;;;4995382;28;20572;-81
2021/06/15 02:40:50;;;;;;;54.83;34.70;;;18.90;99.90;;;;;;4995355;28;20188;-81
2021/06/15 02:43:22;;;;;;;63.03;35.33;;;18.90;99.90;;;;;;4995208;28;20689;-81
2021/06/15 02:45:50;;;;;;;50.90;34.65;;;18.80;99.90;;;;;;4995879;28;20741;-81
2021/06/15 02:48:17;;;;;;;52.28;33.25;;;18.80;99.90;;;;;;4998665;28;20185;-82
2021/06/15 02:50:43;;;;;;;46.78;32.65;;;18.90;99.90;;;;;;4995061;28;20169;-81
2021/06/15 02:53:34;;;;;;;50.83;34.03;;;18.80;99.90;;;;;;4979022;28;20247;-81
2021/06/15 02:56:06;;;;;;;50.85;32.20;;;18.80;99.90;;;;;;5004992;28;20168;-81
2021/06/15 02:58:32;;;;;;;54.95;32.58;;;18.60;99.90;;;;;;5022644;28;20211;-81
2021/06/15 03:00:58;;;;;;;48.10;31.05;;;18.60;99.90;;;;;;5054553;28;20539;-82
2021/06/15 03:03:23;;;;;;;58.60;32.33;;;18.60;99.90;;;;;;5054400;28;20167;-80
2021/06/15 03:05:49;;;;;;;59.00;32.63;;;18.70;99.90;;;;;;5048068;28;20171;-81
2021/06/15 03:08:15;;;;;;;50.20;32.30;;;18.70;99.90;;;;;;5036463;28;20617;-81
2021/06/15 03:10:41;;;;;;;47.35;31.77;;;18.70;99.90;;;;;;5041645;28;20168;-82
2021/06/15 03:13:06;;;;;;;51.00;34.50;;;18.80;99.90;;;;;;5062353;28;20544;-82
2021/06/15 03:15:50;;;;;;;55.00;34.45;;;18.80;99.90;;;;;;5050502;28;20164;-82
2021/06/15 03:18:40;;;;;;;49.15;33.80;;;18.80;99.90;;;;;;5035047;28;20207;-85
2021/06/15 03:21:10;;;;;;;54.40;34.40;;;18.70;99.90;;;;;;5045197;28;20194;-82
2021/06/15 03:23:44;;;;;;;52.00;33.63;;;18.70;99.90;;;;;;5055058;28;20171;-81
2021/06/15 03:26:25;;;;;;;48.17;32.38;;;18.60;99.90;;;;;;5045500;28;20628;-80
2021/06/15 03:28:56;;;;;;;48.13;32.92;;;18.40;99.90;;;;;;5038808;28;20194;-81
2021/06/15 03:31:24;;;;;;;57.80;32.55;;;18.40;99.90;;;;;;5055302;28;20262;-81
2021/06/15 03:33:53;;;;;;;47.38;32.28;;;18.20;99.90;;;;;;5054766;28;20639;-81
2021/06/15 03:36:21;;;;;;;50.75;33.45;;;18.20;99.90;;;;;;5044082;28;20164;-81
2021/06/15 03:38:49;;;;;;;50.58;34.53;;;18.10;99.90;;;;;;5037025;28;20172;-81
2021/06/15 03:41:17;;;;;;;53.83;33.60;;;18.20;99.90;;;;;;5055666;28;20503;-81
2021/06/15 03:43:56;;;;;;;48.50;31.75;;;18.30;99.90;;;;;;5035878;28;20167;-82
2021/06/15 03:46:23;;;;;;;48.95;33.13;;;18.30;99.90;;;;;;5047388;28;20166;-81
2021/06/15 03:48:51;;;;;;;51.97;33.90;;;18.30;99.90;;;;;;5055871;28;20160;-81
2021/06/15 03:51:29;;;;;;;54.63;33.40;;;18.40;99.90;;;;;;5050598;28;20631;-81
2021/06/15 03:54:06;;;;;;;44.55;31.40;;;18.30;99.90;;;;;;5034510;28;20167;-81
2021/06/15 03:56:35;;;;;;;44.92;29.90;;;18.30;99.90;;;;;;5049423;28;20246;-81
2021/06/15 03:59:05;;;;;;;49.13;32.72;;;18.30;99.90;;;;;;5054337;28;20520;-81
2021/06/15 04:01:34;;;;;;;49.67;31.02;;;18.30;99.90;;;;;;5039488;28;20605;-81
2021/06/15 04:04:01;;;;;;;40.53;28.45;;;18.40;99.90;;;;;;5035537;28;20168;-81
2021/06/15 04:06:27;;;;;;;42.70;29.38;;;18.40;99.90;;;;;;5046071;28;20171;-81
2021/06/15 04:08:56;;;;;;;39.38;26.58;;;18.40;99.90;;;;;;5070851;28;20174;-81
2021/06/15 04:11:23;;;;;;;41.33;26.88;;;18.50;99.90;;;;;;5042637;28;20229;-81
2021/06/15 04:13:49;;;;;;;40.67;26.55;;;18.40;99.90;;;;;;5035291;28;20247;-80
2021/06/15 04:16:16;;;;;;;35.03;25.05;;;18.30;99.90;;;;;;5044999;28;20170;-83
2021/06/15 04:18:45;;;;;;;38.33;25.08;;;18.20;99.90;;;;;;4997753;28;20220;-81
2021/06/15 04:21:13;;;;;;;40.65;25.45;;;18.30;99.90;;;;;;5047458;28;20210;-81
2021/06/15 04:23:55;;;;;;;32.17;25.48;;;18.40;99.90;;;;;;5025925;28;20517;-81
2021/06/15 04:26:21;;;;;;;35.78;24.48;;;18.70;99.90;;;;;;5045624;28;20151;-81
2021/06/15 04:28:47;;;;;;;32.75;24.58;;;18.70;99.90;;;;;;5041463;28;20172;-81
2021/06/15 04:31:15;;;;;;;38.05;26.05;;;18.80;99.90;;;;;;5035600;28;20527;-80
2021/06/15 04:33:45;;;;;;;33.25;23.60;;;19.00;99.90;;;;;;5033671;28;20160;-81
2021/06/15 04:36:12;;;;;;;37.03;25.25;;;19.30;99.90;;;;;;5044381;28;20164;-81
2021/06/15 04:38:43;;;;;;;39.53;23.80;;;19.50;99.90;;;;;;5053115;28;20272;-80
2021/06/15 04:41:16;;;;;;;36.28;23.27;;;19.70;99.90;;;;;;5052397;28;20160;-81
2021/06/15 04:43:44;;;;;;;39.53;24.73;;;19.90;99.90;;;;;;5054573;28;20156;-83
2021/06/15 04:46:15;;;;;;;39.03;22.95;;;20.30;99.90;;;;;;5032927;28;20202;-81
2021/06/15 04:48:44;;;;;;;35.38;22.40;;;20.70;99.90;;;;;;5054370;28;20494;-81
2021/06/15 04:51:11;;;;;;;29.73;21.60;;;21.10;99.90;;;;;;5044159;28;20164;-81
2021/06/15 04:53:41;;;;;;;36.70;21.83;;;21.00;99.90;;;;;;5034648;28;20168;-81
2021/06/15 04:56:09;;;;;;;28.45;20.85;;;20.90;99.90;;;;;;5042929;28;20221;-80
2021/06/15 04:58:36;;;;;;;30.60;20.48;;;21.10;99.90;;;;;;5054400;28;20195;-81
2021/06/15 05:01:03;;;;;;;37.92;21.45;;;20.70;99.90;;;;;;5045372;28;20206;-81
2021/06/15 05:03:30;;;;;;;27.25;19.83;;;20.80;99.90;;;;;;5034124;28;20171;-81
2021/06/15 05:06:07;;;;;;;28.90;20.20;;;20.50;99.90;;;;;;5039286;28;20163;-82
2021/06/15 05:08:39;;;;;;;26.30;20.50;;;20.20;99.90;;;;;;5033020;28;20172;-82
2021/06/15 05:11:05;;;;;;;23.80;18.45;;;20.60;99.90;;;;;;5033004;28;20166;-80
2021/06/15 05:13:33;;;;;;;24.55;18.60;;;21.10;99.90;;;;;;5016554;28;20168;-81
2021/06/15 05:16:01;;;;;;;27.02;18.92;;;21.40;99.90;;;;;;5056070;28;20267;-81
2021/06/15 05:18:27;;;;;;;28.70;18.90;;;21.90;99.90;;;;;;5048591;28;20232;-81
2021/06/15 05:20:52;;;;;;;25.40;16.58;;;22.20;99.90;;;;;;5034096;28;20612;-81
2021/06/15 05:23:39;;;;;;;24.92;17.88;;;22.30;99.90;;;;;;5032965;28;20179;-81
2021/06/15 05:26:05;;;;;;;26.73;17.90;;;22.00;99.90;;;;;;5033085;28;20176;-81
2021/06/15 05:28:31;;;;;;;28.48;17.55;;;22.00;99.90;;;;;;5050504;28;20530;-81
2021/06/15 05:30:56;;;;;;;24.88;16.65;;;21.80;99.90;;;;;;5026060;28;20215;-80
2021/06/15 05:33:22;;;;;;;24.30;15.95;;;22.40;99.90;;;;;;5037308;28;20164;-81
2021/06/15 05:35:48;;;;;;;21.42;15.40;;;22.40;99.90;;;;;;5038698;28;20175;-81
2021/06/15 05:38:14;;;;;;;28.02;16.55;;;22.20;99.90;;;;;;5049114;28;20199;-80
2021/06/15 05:40:40;;;;;;;21.40;15.13;;;22.50;99.90;;;;;;5032358;28;20168;-81
2021/06/15 05:43:06;;;;;;;15.57;14.00;;;23.20;99.90;;;;;;5033799;28;20628;-82
2021/06/15 05:45:32;;;;;;;23.83;14.65;;;23.50;99.90;;;;;;5018084;28;20180;-80
2021/06/15 05:47:58;;;;;;;19.90;14.45;;;22.90;99.90;;;;;;5045126;28;20281;-82
2021/06/15 05:50:23;;;;;;;22.38;15.25;;;22.20;99.90;;;;;;5032403;28;20611;-81
2021/06/15 05:52:49;;;;;;;23.45;14.88;;;22.70;99.90;;;;;;5033340;28;20620;-81
2021/06/15 05:55:15;;;;;;;21.48;15.00;;;23.30;99.90;;;;;;5032129;28;20159;-80
2021/06/15 05:57:40;;;;;;;21.05;14.75;;;22.70;99.90;;;;;;5032910;28;20187;-80
2021/06/15 06:00:08;;;;;;;20.77;14.82;;;22.80;99.90;;;;;;5035469;28;20198;-80
2021/06/15 06:02:34;;;;;;;18.77;12.73;;;23.20;99.90;;;;;;5055482;28;20275;-82
2021/06/15 06:10:11;;;;;;;20.27;12.82;;;26.90;99.90;;;;;;5037720;28;20701;-82
2021/06/15 06:12:38;;;;;;;18.00;11.90;;;28.30;99.90;;;;;;5045164;28;20171;-81
2021/06/15 06:15:06;;;;;;;17.73;12.43;;;28.80;99.90;;;;;;5053384;28;20607;-81
2021/06/15 06:17:32;;;;;;;18.85;10.52;;;29.30;99.90;;;;;;5046771;28;20196;-81
2021/06/15 06:19:58;;;;;;;17.17;11.30;;;29.80;99.90;;;;;;5049105;28;20167;-81
2021/06/15 06:22:23;;;;;;;14.00;12.55;;;30.60;99.90;;;;;;5047813;28;20175;-81
2021/06/15 06:24:49;;;;;;;20.30;12.25;;;30.70;99.90;;;;;;5033364;28;20561;-81
2021/06/15 06:27:15;;;;;;;17.50;11.60;;;29.10;99.90;;;;;;5034252;28;20190;-81
2021/06/15 06:29:41;;;;;;;14.00;11.00;;;28.90;99.90;;;;;;5040740;28;20184;-82
2021/06/15 06:32:07;;;;;;;18.35;10.90;;;29.20;99.90;;;;;;5050851;28;20520;-81
2021/06/15 06:34:33;;;;;;;20.27;11.75;;;29.30;99.90;;;;;;5037641;28;20171;-81
2021/06/15 06:36:59;;;;;;;12.98;11.45;;;30.30;99.90;;;;;;5042922;28;20200;-81
2021/06/15 06:39:24;;;;;;;19.92;11.80;;;29.80;99.90;;;;;;5066770;28;20265;-81
2021/06/15 06:41:50;;;;;;;12.13;10.82;;;30.90;99.90;;;;;;5068466;28;20175;-80
2021/06/15 06:44:16;;;;;;;11.13;10.07;;;31.40;99.90;;;;;;5053102;28;20507;-81
2021/06/15 06:46:42;;;;;;;12.95;10.68;;;32.10;99.90;;;;;;5051060;28;20241;-81
2021/06/15 06:49:07;;;;;;;13.93;10.98;;;31.00;99.90;;;;;;5051677;28;20177;-80
2021/06/15 06:51:34;;;;;;;14.48;10.07;;;31.20;99.90;;;;;;5038810;28;20526;-81
2021/06/15 06:54:03;;;;;;;18.52;10.55;;;31.00;99.90;;;;;;5031823;28;20186;-85
2021/06/15 06:56:29;;;;;;;16.73;9.35;;;31.60;99.90;;;;;;5042173;28;20182;-80
2021/06/15 06:58:55;;;;;;;20.02;10.52;;;32.90;99.90;;;;;;5038467;28;20168;-81
2021/06/15 07:01:24;;;;;;;10.35;9.25;;;33.40;99.90;;;;;;5034804;28;20172;-81
2021/06/15 07:03:51;;;;;;;10.65;9.70;;;33.20;99.90;;;;;;5037660;28;20181;-81
2021/06/15 07:06:17;;;;;;;11.95;10.07;;;31.90;99.90;;;;;;5056625;28;20187;-81
2021/06/15 07:08:43;;;;;;;14.25;9.43;;;32.40;99.90;;;;;;5044242;28;20175;-81
2021/06/15 07:11:08;;;;;;;18.73;9.07;;;32.80;99.90;;;;;;5036433;28;20209;-81
2021/06/15 07:13:34;;;;;;;16.27;9.73;;;33.70;99.90;;;;;;5040506;28;20183;-80
2021/06/15 07:16:00;;;;;;;11.02;8.98;;;34.00;98.10;;;;;;5037641;28;20522;-82
2021/06/15 07:18:25;;;;;;;17.73;9.70;;;34.40;99.00;;;;;;5045449;28;20185;-81
2021/06/15 07:20:51;;;;;;;9.48;7.22;;;35.20;97.20;;;;;;5056325;28;20170;-80
2021/06/15 07:23:17;;;;;;;14.35;8.82;;;35.20;96.30;;;;;;5055054;28;20174;-81
2021/06/15 07:25:43;;;;;;;12.88;8.55;;;34.30;96.40;;;;;;5055903;28;20169;-82
2021/06/15 07:28:09;;;;;;;13.95;8.40;;;33.40;96.90;;;;;;5054340;28;20607;-81
2021/06/15 07:30:34;;;;;;;10.45;7.50;;;33.80;98.20;;;;;;5070187;28;20185;-81
2021/06/15 07:33:00;;;;;;;13.13;8.52;;;34.90;97.20;;;;;;5041811;28;20202;-82
2021/06/15 07:35:27;;;;;;;16.92;8.40;;;35.40;94.80;;;;;;5036662;28;20199;-81
2021/06/15 07:37:53;;;;;;;10.65;7.22;;;37.00;93.50;;;;;;5055918;28;20194;-80
2021/06/15 07:40:23;;;;;;;17.90;7.70;;;37.80;91.80;;;;;;5055639;28;20162;-81
2021/06/15 07:42:53;;;;;;;11.57;8.85;;;35.60;92.40;;;;;;5038956;28;20167;-83
2021/06/15 07:45:19;;;;;;;19.75;7.88;;;35.00;93.60;;;;;;5041923;28;20178;-80
2021/06/15 07:47:44;;;;;;;11.50;6.57;;;35.60;93.50;;;;;;5055798;28;20171;-82
2021/06/15 07:50:11;;;;;;;9.77;6.85;;;36.50;92.50;;;;;;5054576;28;20166;-79
2021/06/15 07:52:37;;;;;;;8.95;6.18;;;35.80;91.60;;;;;;5053661;28;20501;-81
2021/06/15 07:55:03;;;;;;;9.57;6.38;;;36.00;92.30;;;;;;5036543;28;20168;-82
2021/06/15 07:57:28;;;;;;;12.60;6.28;;;37.60;91.20;;;;;;5035719;28;20192;-82
2021/06/15 07:59:54;;;;;;;13.23;6.03;;;38.20;89.90;;;;;;5017494;28;20178;-80
2021/06/15 08:02:19;;;;;;;9.77;5.40;;;36.30;88.80;;;;;;5070360;28;20174;-80
2021/06/15 08:04:46;;;;;;;10.95;4.75;;;35.10;90.90;;;;;;5055509;28;20649;-81
2021/06/15 08:07:11;;;;;;;8.98;4.93;;;34.70;91.40;;;;;;5054178;28;20522;-80
2021/06/15 08:09:37;;;;;;;9.52;4.43;;;35.30;92.00;;;;;;5070620;28;20175;-80
2021/06/15 08:12:03;;;;;;;6.68;3.58;;;35.20;90.60;;;;;;5070256;28;20229;-80
2021/06/15 08:14:29;;;;;;;4.57;3.83;;;35.50;91.80;;;;;;5035696;28;20175;-80
2021/06/15 08:16:54;;;;;;;4.93;3.28;;;34.90;91.80;;;;;;5017765;28;20698;-80
2021/06/15 08:19:20;;;;;;;13.15;3.65;;;35.90;91.30;;;;;;5035364;28;20218;-81
2021/06/15 08:21:46;;;;;;;11.30;4.38;;;37.00;89.20;;;;;;5035063;28;20638;-80
2021/06/15 08:24:15;;;;;;;7.78;2.97;;;36.70;87.40;;;;;;5050309;28;20221;-80
2021/06/15 08:26:42;;;;;;;7.15;2.90;;;37.90;87.00;;;;;;5070517;28;20170;-82
2021/06/15 08:29:07;;;;;;;6.20;3.53;;;38.70;83.60;;;;;;5054973;28;20171;-81
2021/06/15 08:31:33;;;;;;;7.75;4.30;;;38.00;86.90;;;;;;5041627;28;20591;-82
2021/06/15 08:33:59;;;;;;;5.35;3.35;;;38.20;84.90;;;;;;5048924;28;20174;-82
2021/06/15 08:36:25;;;;;;;3.90;3.33;;;39.40;83.30;;;;;;5053471;28;20216;-81
2021/06/15 08:38:51;;;;;;;13.43;3.60;;;39.40;82.10;;;;;;5070196;28;20221;-81
2021/06/15 08:41:18;;;;;;;5.85;3.33;;;37.40;87.50;;;;;;5051681;28;20167;-83
2021/06/15 08:43:45;;;;;;;5.78;3.50;;;39.20;85.40;;;;;;5046083;28;20174;-81
2021/06/15 08:46:12;;;;;;;5.53;3.72;;;40.40;81.40;;;;;;5070054;28;20163;-82
2021/06/15 08:48:38;;;;;;;11.35;3.80;;;39.80;79.40;;;;;;5053415;28;20216;-80
2021/06/15 08:51:04;;;;;;;10.32;3.58;;;39.80;80.70;;;;;;5069957;28;20207;-82
2021/06/15 08:53:34;;;;;;;8.07;3.17;;;40.30;78.60;;;;;;5045095;28;20168;-82
2021/06/15 08:56:09;;;;;;;11.93;3.92;;;41.10;79.20;;;;;;5034497;28;20171;-80
2021/06/15 08:58:42;;;;;;;6.75;4.18;;;38.90;80.30;;;;;;5033225;28;20290;-81
2021/06/15 09:01:11;;;;;;;5.30;3.30;;;38.60;81.70;;;;;;5045798;28;20166;-80
2021/06/15 09:03:36;;;;;;;8.23;3.30;;;38.10;80.10;;;;;;5052461;28;20171;-81
2021/06/15 09:06:02;;;;;;;9.05;3.53;;;36.70;81.80;;;;;;5054407;28;20167;-81
2021/06/15 09:08:30;;;;;;;6.32;3.20;;;37.80;84.20;;;;;;5053018;28;20253;-85
2021/06/15 09:10:56;;;;;;;13.57;3.22;;;38.90;81.20;;;;;;5053877;28;20229;-81
2021/06/15 09:13:39;;;;;;;4.95;2.95;;;39.70;78.80;;;;;;5046201;28;20179;-85
2021/06/15 09:16:22;;;;;;;2.72;2.08;;;38.60;77.60;;;;;;5034350;28;20194;-85
2021/06/15 09:18:48;;;;;;;6.95;2.67;;;39.00;78.80;;;;;;5049446;28;20203;-84
2021/06/15 09:21:45;;;;;;;5.35;3.22;;;40.10;75.50;;;;;;5032354;28;20171;-80
2021/06/15 09:24:22;;;;;;;4.00;2.75;;;36.50;80.10;;;;;;5063092;28;20183;-83
2021/06/15 09:27:10;;;;;;;4.97;2.30;;;38.40;82.50;;;;;;5043621;28;20164;-82
2021/06/15 09:29:53;;;;;;;4.20;2.80;;;38.40;80.10;;;;;;5033882;28;20197;-83
2021/06/15 09:32:24;;;;;;;3.20;2.35;;;38.90;76.60;;;;;;5032518;28;20651;-84
2021/06/15 09:34:53;;;;;;;3.67;2.00;;;39.50;76.80;;;;;;5033836;28;20172;-84
2021/06/15 09:37:36;;;;;;;14.95;2.40;;;41.10;78.10;;;;;;5041876;28;20213;-81
2021/06/15 09:40:09;;;;;;;4.68;2.50;;;41.30;74.70;;;;;;5031824;28;20218;-85
2021/06/15 09:42:51;;;;;;;5.85;2.25;;;41.40;74.30;;;;;;5048359;28;20612;-83
2021/06/15 09:45:21;;;;;;;7.13;2.33;;;40.90;74.60;;;;;;5053583;28;20476;-85
2021/06/15 09:47:47;;;;;;;3.53;2.25;;;40.90;72.40;;;;;;5053539;28;20181;-84
2021/06/15 09:50:13;;;;;;;8.82;2.42;;;41.10;72.50;;;;;;5053839;28;20261;-88
2021/06/15 09:52:39;;;;;;;2.95;2.20;;;41.70;71.70;;;;;;5053098;28;20245;-83
2021/06/15 09:55:06;;;;;;;4.43;2.00;;;41.50;72.10;;;;;;5033291;28;20172;-84
2021/06/15 09:57:37;;;;;;;4.43;2.55;;;41.20;70.90;;;;;;5033636;28;20206;-81
2021/06/15 10:00:13;;;;;;;13.57;2.83;;;39.60;73.20;;;;;;5032024;28;20613;-86
2021/06/15 10:02:57;;;;;;;14.57;3.25;;;38.90;74.30;;;;;;5038492;28;20200;-85
2021/06/15 10:05:25;;;;;;;24.35;2.65;;;35.80;77.80;;;;;;5051833;28;20178;-83
2021/06/15 10:07:52;;;;;;;5.18;2.35;;;37.80;77.30;;;;;;5068090;28;20619;-84
2021/06/15 10:10:23;;;;;;;5.28;2.35;;;38.60;75.90;;;;;;5047055;28;20245;-84
2021/06/15 10:12:51;;;;;;;5.65;2.33;;;36.10;79.00;;;;;;5037432;28;20183;-88
2021/06/15 10:15:17;;;;;;;6.75;2.00;;;35.20;82.00;;;;;;5069980;28;20253;-91
2021/06/15 10:17:45;;;;;;;6.85;2.20;;;35.90;78.70;;;;;;5052229;28;20290;-85
2021/06/15 10:20:15;;;;;;;3.00;2.47;;;36.40;77.80;;;;;;5053920;28;20191;-89
2021/06/15 10:22:43;;;;;;;5.38;1.90;;;34.50;80.70;;;;;;5049482;28;20174;-92
2021/06/15 10:25:10;;;;;;;7.22;2.63;;;34.00;83.60;;;;;;5033576;28;20192;-87
2021/06/15 10:27:36;;;;;;;3.63;2.00;;;34.60;81.50;;;;;;5032080;28;20608;-81
2021/06/15 10:30:03;;;;;;;6.60;1.92;;;33.00;83.20;;;;;;5032018;28;20189;-86
2021/06/15 10:32:30;;;;;;;3.15;1.77;;;32.50;86.30;;;;;;5033110;28;20163;-84
2021/06/15 10:35:03;;;;;;;6.93;2.00;;;32.10;86.80;;;;;;5052538;28;20216;-89
2021/06/15 10:37:35;;;;;;;2.92;2.17;;;31.90;88.60;;;;;;5053879;28;20187;-89
2021/06/15 10:40:14;;;;;;;2.15;1.40;;;32.70;84.50;;;;;;5055521;28;20211;-89
2021/06/15 10:42:41;;;;;;;3.10;1.40;;;33.80;83.90;;;;;;5056110;28;20186;-91
2021/06/15 10:45:13;;;;;;;1.58;1.00;;;35.60;82.10;;;;;;5056558;28;20194;-87
2021/06/15 10:48:05;;;;;;;3.58;1.58;;;35.90;78.20;;;;;;5072352;28;20175;-86
2021/06/15 10:50:44;;;;;;;1.52;0.82;;;34.10;79.90;;;;;;5057279;28;20246;-87
2021/06/15 10:53:11;;;;;;;5.97;1.42;;;36.10;83.10;;;;;;5056343;28;20194;-86
2021/06/15 10:55:50;;;;;;;2.90;1.08;;;37.70;79.10;;;;;;5072303;28;20174;-85
2021/06/15 10:58:32;;;;;;;2.85;0.93;;;37.00;75.40;;;;;;5056545;28;20722;-84
2021/06/15 11:01:21;;;;;;;9.25;1.33;;;36.30;75.40;;;;;;5051119;28;20278;-78
2021/06/15 11:03:52;;;;;;;1.38;1.08;;;37.70;78.30;;;;;;5043463;28;20168;-78
2021/06/15 11:06:20;;;;;;;2.67;1.27;;;37.90;76.00;;;;;;5036632;28;20230;-78
2021/06/15 11:08:46;;;;;;;4.18;1.10;;;39.40;74.80;;;;;;5054442;28;20179;-78
2021/06/15 11:11:20;;;;;;;2.00;1.40;;;39.00;71.90;;;;;;5054798;28;20521;-75
2021/06/15 11:13:54;;;;;;;1.58;1.20;;;36.80;73.40;;;;;;5056526;28;20167;-77
2021/06/15 11:16:41;;;;;;;1.08;0.93;;;36.30;76.30;;;;;;5054788;28;20217;-76
2021/06/15 11:19:17;;;;;;;2.55;1.25;;;36.50;77.70;;;;;;5056429;28;20163;-77
2021/06/15 11:21:50;;;;;;;5.22;1.23;;;36.50;76.00;;;;;;5056201;28;20143;-77
2021/06/15 11:27:20;;;;;;;1.70;1.20;;;37.90;74.70;;;;;;5056277;28;20157;-75
2021/06/15 11:29:50;;;;;;;3.03;1.30;;;39.50;72.00;;;;;;5055869;28;20189;-77
2021/06/15 11:32:19;;;;;;;2.72;1.50;;;39.80;71.00;;;;;;5055396;28;20170;-77
2021/06/15 11:35:01;;;;;;;6.28;1.20;;;36.70;73.40;;;;;;5055625;28;20163;-76
2021/06/15 11:37:32;;;;;;;9.57;1.42;;;37.00;75.00;;;;;;5071527;28;20544;-76
2021/06/15 11:40:16;;;;;;;6.90;1.13;;;35.80;78.60;;;;;;5055830;28;20151;-76
2021/06/15 11:42:43;;;;;;;4.07;1.15;;;35.70;78.10;;;;;;5056156;28;20194;-80
2021/06/15 11:45:13;;;;;;;10.07;1.35;;;34.10;81.50;;;;;;5054511;28;20591;-80
2021/06/15 11:47:43;;;;;;;3.72;1.25;;;34.30;80.50;;;;;;5055925;28;20166;-79
2021/06/15 11:50:08;;;;;;;6.07;1.20;;;34.40;79.00;;;;;;5055338;28;20604;-79
2021/06/15 11:52:35;;;;;;;6.38;1.20;;;35.20;79.30;;;;;;5071187;28;20184;-80
2021/06/15 11:55:02;;;;;;;9.45;1.67;;;35.30;78.40;;;;;;5055514;28;20257;-79
2021/06/15 11:57:28;;;;;;;9.95;1.20;;;35.80;78.60;;;;;;5071002;28;20218;-80
2021/06/15 11:59:54;;;;;;;3.00;1.65;;;35.60;76.00;;;;;;5055759;28;20166;-80
2021/06/15 12:02:20;;;;;;;1.50;1.40;;;35.40;76.40;;;;;;5039565;28;20168;-79
2021/06/15 12:05:06;;;;;;;2.90;1.38;;;34.60;79.30;;;;;;5035718;28;20543;-81
2021/06/15 12:07:32;;;;;;;10.48;1.73;;;34.90;80.10;;;;;;5035612;28;20195;-80
2021/06/15 12:10:16;;;;;;;7.45;1.92;;;35.60;79.00;;;;;;5035555;28;20199;-80
2021/06/15 12:12:55;;;;;;;8.77;1.70;;;36.30;79.80;;;;;;5035414;28;20247;-80
2021/06/15 12:15:31;;;;;;;3.58;1.55;;;35.90;76.90;;;;;;5034109;28;20671;-80
2021/06/15 12:17:57;;;;;;;3.60;1.23;;;35.70;79.40;;;;;;5034189;28;20219;-80
2021/06/15 12:20:29;;;;;;;6.30;1.40;;;35.70;78.00;;;;;;5035422;28;20167;-82
2021/06/15 12:22:55;;;;;;;4.00;1.30;;;35.20;79.80;;;;;;5033978;28;20213;-80
2021/06/15 12:25:31;;;;;;;1.45;1.15;;;34.90;80.20;;;;;;5035260;28;20156;-80
2021/06/15 12:28:11;;;;;;;6.60;1.30;;;33.80;80.10;;;;;;5035098;28;20414;-80
2021/06/15 12:30:38;;;;;;;2.47;1.30;;;32.70;82.00;;;;;;5038583;28;20170;-80
2021/06/15 12:33:05;;;;;;;1.95;1.20;;;32.40;83.30;;;;;;5055057;28;20159;-80
2021/06/15 12:35:30;;;;;;;2.47;1.10;;;32.10;86.30;;;;;;5054911;28;20170;-80
2021/06/15 12:37:56;;;;;;;13.25;1.80;;;32.00;86.30;;;;;;5054872;28;20199;-80
2021/06/15 12:40:22;;;;;;;3.97;1.77;;;31.50;86.20;;;;;;5054746;28;20167;-79
2021/06/15 12:42:51;;;;;;;1.83;1.38;;;30.70;88.00;;;;;;5054879;28;20197;-80
2021/06/15 12:45:17;;;;;;;2.53;1.60;;;30.10;90.20;;;;;;5054800;28;20396;-79
2021/06/15 12:47:44;;;;;;;6.32;1.65;;;30.30;89.00;;;;;;5054742;28;20515;-79
2021/06/15 12:50:39;;;;;;;4.90;1.73;;;29.80;90.00;;;;;;5054716;28;20166;-79
2021/06/15 12:53:05;;;;;;;3.78;1.73;;;29.90;89.50;;;;;;5058252;28;20179;-79
2021/06/15 12:55:40;;;;;;;5.90;1.70;;;29.70;90.90;;;;;;5070089;28;20493;-79